createdAt,value
2022-12-14T00:01:48.683Z,99108.30
2022-12-14T00:16:35.949Z,99078.18
2022-12-14T00:31:26.260Z,99074.14
2022-12-14T00:46:15.720Z,99054.09
2022-12-14T01:01:04.915Z,99060.11
2022-12-14T01:15:54.045Z,99063.01
2022-12-14T01:30:43.642Z,99047.70
2022-12-14T01:45:33.317Z,99049.41
2022-12-14T02:00:27.474Z,99025.19
2022-12-14T02:15:20.030Z,98996.48
2022-12-14T02:30:15.594Z,99007.23
2022-12-14T02:45:17.311Z,99004.16
2022-12-14T03:00:11.326Z,98987.22
2022-12-14T03:15:01.693Z,98985.88
2022-12-14T03:29:51.586Z,98958.00
2022-12-14T03:44:49.311Z,98952.39
2022-12-14T03:59:43.360Z,98926.20
2022-12-14T04:14:54.086Z,98925.30
2022-12-14T04:29:58.200Z,98913.26
2022-12-14T04:44:52.486Z,98908.96
2022-12-14T04:59:42.454Z,98893.41
2022-12-14T05:14:37.339Z,98895.66
2022-12-14T05:29:31.476Z,98882.46
2022-12-14T05:44:21.324Z,98859.40
2022-12-14T05:59:10.976Z,98845.72
2022-12-14T06:14:01.545Z,98835.77
2022-12-14T06:28:51.197Z,98828.91
2022-12-14T06:58:32.609Z,98763.64
2022-12-14T07:13:21.202Z,98782.27
2022-12-14T07:28:11.320Z,98785.44
2022-12-14T07:43:01.757Z,98759.64
2022-12-14T07:57:50.830Z,98765.42
2022-12-14T08:12:40.402Z,98775.54
2022-12-14T08:27:30.345Z,98758.90
2022-12-14T08:42:20.326Z,98732.12
2022-12-14T08:57:10.079Z,98721.20
2022-12-14T09:12:00.271Z,98747.75
2022-12-14T09:26:49.855Z,98769.58
2022-12-14T09:41:45.344Z,98760.64
2022-12-14T09:56:38.096Z,98735.86
2022-12-14T10:11:30.161Z,98751.39
2022-12-14T10:26:22.360Z,98763.90
2022-12-14T10:41:32.995Z,98749.25
2022-12-14T10:56:27.829Z,98753.08
2022-12-14T11:11:21.470Z,98753.48
2022-12-14T11:26:15.586Z,98755.88
2022-12-14T11:41:11.858Z,98759.89
2022-12-14T11:55:57.549Z,98767.72
2022-12-14T12:10:49.954Z,98763.64
2022-12-14T12:25:37.894Z,98783.35
2022-12-14T12:40:30.030Z,98775.19
2022-12-14T12:55:22.825Z,98781.92
2022-12-14T13:10:34.118Z,98769.03
2022-12-14T13:25:50.388Z,98789.25
2022-12-14T13:40:57.596Z,98811.23
2022-12-14T13:56:00.401Z,98822.25
2022-12-14T14:11:20.571Z,98844.23
2022-12-14T14:25:48.691Z,98870.42
2022-12-14T14:41:14.734Z,98900.47
2022-12-14T15:10:24.389Z,98939.64
2022-12-14T15:25:17.511Z,98963.95
2022-12-14T15:40:15.823Z,98989.77
2022-12-14T15:55:09.265Z,99003.73
2022-12-14T16:10:00.163Z,99018.46
2022-12-14T16:24:56.901Z,99033.91
2022-12-14T16:39:49.623Z,99040.50
2022-12-14T16:54:39.020Z,99062.02
2022-12-14T17:09:28.685Z,99066.19
2022-12-14T17:24:18.686Z,99086.35
2022-12-14T17:39:08.876Z,99097.72
2022-12-14T17:53:58.653Z,99107.64
2022-12-14T18:08:51.012Z,99112.45
2022-12-14T18:23:43.312Z,99120.09
2022-12-14T18:38:32.261Z,99124.16
2022-12-14T18:53:22.679Z,99151.80
2022-12-14T19:08:12.959Z,99176.57
2022-12-14T19:23:02.909Z,99172.45
2022-12-14T19:37:54.770Z,99173.13
2022-12-14T19:52:47.017Z,99174.37
2022-12-14T20:07:43.335Z,99187.64
2022-12-14T20:22:26.682Z,99211.02
2022-12-14T20:37:16.085Z,99219.79
2022-12-14T20:52:06.694Z,99210.67
2022-12-14T21:06:56.479Z,99214.20
2022-12-14T21:21:53.034Z,99220.36
2022-12-14T21:36:36.545Z,99233.16
2022-12-14T21:51:25.748Z,99239.70
2022-12-14T22:06:14.947Z,99241.22
2022-12-14T22:21:04.854Z,99256.80
2022-12-14T22:35:53.626Z,99263.97
2022-12-14T22:50:43.150Z,99250.03
2022-12-14T23:05:33.738Z,99252.69
2022-12-14T23:20:44.346Z,99261.75
2022-12-14T23:35:58.164Z,99259.58
2022-12-14T23:51:10.796Z,99292.61
